Time;durP1;ratioP1;P1;durP2;ratioP2;P2;SDS_P1;SDS_P2;PMS_P1;PMS_P2;Temp;Humidity;BMP_temperature;BMP_pressure;BME280_temperature;BME280_humidity;BME280_pressure;Samples;Min_cycle;Max_cycle;Signal;HPM_P1;HPM_P2
2021/04/21 06:22:30;;;;;;;10.70;9.60;;;14.70;30.40;;;;;;6164949;23;20532;-87
2021/04/21 06:25:11;;;;;;;10.60;9.60;;;15.30;29.40;;;;;;6163598;23;20375;-92
2021/04/21 06:28:21;;;;;;;11.53;10.33;;;16.10;28.50;;;;;;6164619;23;20370;-92
2021/04/21 06:37:56;;;;;;;10.27;9.37;;;17.20;26.50;;;;;;6191561;23;20366;-91
2021/04/21 06:40:27;;;;;;;11.33;10.33;;;17.60;25.70;;;;;;6164409;23;20469;-91
2021/04/21 06:42:55;;;;;;;13.07;11.77;;;17.80;25.70;;;;;;6164688;23;20483;-91
2021/04/21 06:45:32;;;;;;;11.47;10.40;;;18.50;24.80;;;;;;6163035;23;20389;-90
2021/04/21 06:48:01;;;;;;;13.63;12.50;;;18.80;23.80;;;;;;6195212;23;20412;-94
2021/04/21 06:56:57;;;;;;;13.97;12.87;;;19.60;23.10;;;;;;6098902;23;20395;-90
2021/04/21 06:59:23;;;;;;;13.20;11.80;;;20.10;22.50;;;;;;6071238;23;20789;-90
2021/04/21 07:01:50;;;;;;;13.77;12.57;;;20.00;22.60;;;;;;6072781;23;20239;-90
2021/04/21 07:04:20;;;;;;;15.70;14.13;;;20.00;22.20;;;;;;6074095;23;20189;-90
2021/04/21 07:06:46;;;;;;;15.80;14.20;;;19.40;22.40;;;;;;6075346;23;20420;-89
2021/04/21 07:09:14;;;;;;;15.03;13.53;;;18.80;23.80;;;;;;6074476;23;20432;-88
2021/04/21 07:11:41;;;;;;;13.33;12.23;;;18.90;23.80;;;;;;6074469;23;20360;-89
2021/04/21 07:14:08;;;;;;;14.50;13.37;;;19.10;23.90;;;;;;6074503;23;20471;-89
2021/04/21 07:16:36;;;;;;;15.57;14.17;;;19.20;24.00;;;;;;6074837;23;20820;-89
2021/04/21 07:19:05;;;;;;;13.90;12.70;;;19.40;24.20;;;;;;6163233;23;20485;-89
2021/04/21 07:21:32;;;;;;;14.03;12.80;;;19.70;23.80;;;;;;6163835;23;20729;-89
2021/04/21 07:24:04;;;;;;;15.63;14.13;;;19.50;23.80;;;;;;6158166;23;20766;-88
2021/04/21 07:26:50;;;;;;;16.77;15.07;;;19.60;24.00;;;;;;6158360;23;20386;-89
2021/04/21 07:29:24;;;;;;;15.87;14.50;;;19.60;24.10;;;;;;6158346;23;20438;-88
2021/04/21 07:31:51;;;;;;;20.87;18.37;;;19.40;24.00;;;;;;6157828;23;20384;-91
2021/04/21 07:34:29;;;;;;;16.83;15.20;;;19.20;24.00;;;;;;6158151;23;20386;-89
2021/04/21 07:36:55;;;;;;;16.07;14.77;;;18.20;25.20;;;;;;6160261;23;20375;-91
2021/04/21 07:39:35;;;;;;;17.77;16.20;;;18.20;26.00;;;;;;6160115;23;20411;-91
2021/04/21 07:42:02;;;;;;;18.23;16.53;;;18.20;25.90;;;;;;6161163;23;20868;-93
2021/04/21 07:45:06;;;;;;;17.07;15.67;;;17.80;26.30;;;;;;6160807;23;20394;-93
2021/04/21 07:47:35;;;;;;;16.83;15.23;;;17.70;27.00;;;;;;6161836;23;20394;-94
2021/04/21 07:50:05;;;;;;;18.53;16.93;;;17.60;27.80;;;;;;6163845;23;20423;-95
2021/04/21 07:56:05;;;;;;;17.73;16.03;;;17.60;28.20;;;;;;6162642;23;20347;-94
2021/04/21 07:58:31;;;;;;;17.40;15.80;;;17.90;28.30;;;;;;6161938;23;20383;-93
2021/04/21 08:00:57;;;;;;;17.73;16.03;;;17.70;28.30;;;;;;6160278;23;20374;-94
2021/04/21 08:03:33;;;;;;;19.37;17.50;;;17.80;28.50;;;;;;6159465;23;20434;-92
2021/04/21 08:05:59;;;;;;;19.83;17.83;;;17.40;28.30;;;;;;6158592;23;20155;-90
2021/04/21 08:08:39;;;;;;;20.63;18.63;;;17.40;29.20;;;;;;6159407;23;20446;-93
2021/04/21 08:11:05;;;;;;;20.73;18.83;;;17.30;29.70;;;;;;6162539;23;20876;-93
2021/04/21 08:13:49;;;;;;;21.80;19.63;;;17.20;29.60;;;;;;6161665;23;20379;-96
2021/04/21 08:16:22;;;;;;;19.10;17.17;;;17.20;30.40;;;;;;6162901;23;20589;-92
2021/04/21 08:19:00;;;;;;;17.70;16.10;;;17.00;30.40;;;;;;6160070;23;20391;-88
2021/04/21 08:21:44;;;;;;;20.07;18.17;;;17.00;31.30;;;;;;6160769;23;20450;-94
2021/04/21 08:24:12;;;;;;;21.83;19.90;;;17.50;29.60;;;;;;6158229;23;20438;-95
2021/04/21 08:26:52;;;;;;;21.10;18.83;;;17.70;29.50;;;;;;6162254;23;20427;-93
2021/04/21 08:29:18;;;;;;;17.83;16.10;;;17.40;29.40;;;;;;6163432;23;20419;-93
2021/04/21 08:31:52;;;;;;;15.57;14.17;;;17.70;29.30;;;;;;6164922;23;20384;-92
2021/04/21 08:34:21;;;;;;;17.70;16.00;;;17.70;29.70;;;;;;6138739;23;20474;-90
2021/04/21 08:36:47;;;;;;;16.80;15.30;;;17.70;29.10;;;;;;6160961;23;20383;-90
2021/04/21 08:39:15;;;;;;;18.60;16.70;;;18.00;29.50;;;;;;6160716;23;20398;-92
2021/04/21 08:45:04;;;;;;;20.00;17.97;;;18.20;28.40;;;;;;6166611;23;20402;-92
2021/04/21 08:50:53;;;;;;;18.00;16.27;;;18.60;28.70;;;;;;6164214;23;20395;-92
2021/04/21 08:56:43;;;;;;;18.50;16.80;;;18.80;27.80;;;;;;6162685;23;20355;-94
2021/04/21 08:59:55;;;;;;;16.93;15.23;;;19.10;27.20;;;;;;6160431;23;20387;-94
2021/04/21 09:02:21;;;;;;;18.90;17.20;;;19.40;26.80;;;;;;6159677;23;20390;-94
2021/04/21 09:04:47;;;;;;;19.93;17.80;;;19.50;26.80;;;;;;6161106;23;20368;-93
2021/04/21 09:08:00;;;;;;;17.70;16.10;;;19.30;25.60;;;;;;6160270;23;20774;-93
2021/04/21 09:10:25;;;;;;;18.40;16.60;;;19.20;27.40;;;;;;6159085;23;20478;-90
2021/04/21 09:12:58;;;;;;;18.70;17.00;;;19.10;26.90;;;;;;6157930;23;20373;-90
2021/04/21 09:15:24;;;;;;;18.40;16.60;;;19.10;26.50;;;;;;6159366;23;20510;-91
2021/04/21 09:18:39;;;;;;;16.87;14.80;;;19.10;26.90;;;;;;6158368;23;20367;-90
2021/04/21 09:27:35;;;;;;;15.20;13.77;;;19.20;25.20;;;;;;6041556;23;20394;-91
2021/04/21 09:30:40;;;;;;;14.40;13.00;;;19.70;25.60;;;;;;6163300;23;20765;-91
2021/04/21 09:33:07;;;;;;;14.70;13.30;;;19.80;22.60;;;;;;6163837;23;20411;-90
2021/04/21 09:35:39;;;;;;;13.13;11.87;;;19.80;22.70;;;;;;6163143;23;20386;-91
2021/04/21 09:41:27;;;;;;;14.17;12.87;;;19.80;23.20;;;;;;6196538;23;20379;-93
2021/04/21 09:47:19;;;;;;;13.87;12.57;;;19.50;23.00;;;;;;6191733;23;20342;-94
2021/04/21 09:49:44;;;;;;;12.40;11.20;;;19.20;23.60;;;;;;6166542;23;20492;-93
2021/04/21 09:52:24;;;;;;;14.23;12.93;;;19.10;23.30;;;;;;6165318;23;20371;-92
2021/04/21 09:54:51;;;;;;;12.00;10.97;;;19.50;22.90;;;;;;6166053;23;20143;-93
2021/04/21 09:57:21;;;;;;;12.83;11.63;;;19.60;22.90;;;;;;6164733;23;20381;-92
2021/04/21 09:59:55;;;;;;;11.30;10.20;;;19.80;21.40;;;;;;6165705;23;20386;-92
2021/04/21 10:02:33;;;;;;;10.73;9.63;;;19.70;21.70;;;;;;6163929;23;20377;-92
2021/04/21 10:05:26;;;;;;;11.47;10.37;;;19.70;20.90;;;;;;6167661;23;20908;-92
2021/04/21 10:08:15;;;;;;;13.63;12.37;;;19.70;22.10;;;;;;6171863;23;20375;-93
2021/04/21 10:14:23;;;;;;;12.63;11.43;;;19.90;21.80;;;;;;6195032;23;20409;-92
2021/04/21 10:16:51;;;;;;;12.60;11.40;;;20.30;21.90;;;;;;6169505;23;20757;-91
2021/04/21 10:19:18;;;;;;;10.43;9.50;;;20.20;21.40;;;;;;6168536;23;20374;-92
2021/04/21 10:21:55;;;;;;;11.23;10.23;;;20.70;22.00;;;;;;6168464;23;20386;-91
2021/04/21 10:24:22;;;;;;;10.73;9.83;;;21.10;20.60;;;;;;6169798;23;20430;-91
2021/04/21 10:26:50;;;;;;;11.33;8.97;;;20.80;20.20;;;;;;6168812;23;20884;-92
2021/04/21 10:29:16;;;;;;;10.63;9.60;;;21.10;20.90;;;;;;6168779;23;20488;-92
2021/04/21 10:31:43;;;;;;;12.60;11.40;;;21.40;21.00;;;;;;6172237;23;20349;-92
2021/04/21 10:34:09;;;;;;;10.13;9.23;;;21.20;19.70;;;;;;6172933;23;20385;-92
2021/04/21 10:36:35;;;;;;;10.03;8.80;;;21.30;19.50;;;;;;6167673;23;20444;-92
2021/04/21 10:39:01;;;;;;;10.37;9.43;;;21.10;19.80;;;;;;6169691;23;20386;-93
2021/04/21 10:41:35;;;;;;;10.33;9.33;;;21.10;18.80;;;;;;6168928;23;20353;-93
2021/04/21 10:44:11;;;;;;;9.60;8.80;;;21.30;19.20;;;;;;6195146;23;20229;-93
2021/04/21 10:47:08;;;;;;;9.47;8.53;;;20.70;19.40;;;;;;6168096;23;20385;-93
2021/04/21 10:50:04;;;;;;;9.60;8.70;;;21.10;18.60;;;;;;6168549;23;20421;-92
2021/04/21 10:52:30;;;;;;;10.93;10.03;;;20.80;18.60;;;;;;6169940;23;20361;-92
2021/04/21 10:55:03;;;;;;;10.43;9.53;;;20.90;19.50;;;;;;6169060;23;20392;-92
2021/04/21 11:00:51;;;;;;;9.17;8.37;;;20.80;18.40;;;;;;6193582;23;20398;-94
2021/04/21 11:03:44;;;;;;;9.33;8.53;;;21.00;18.50;;;;;;6167721;23;20355;-94
2021/04/21 11:06:10;;;;;;;8.37;7.60;;;22.00;18.80;;;;;;6172243;23;20147;-93
2021/04/21 11:12:35;;;;;;;8.97;8.17;;;21.10;19.10;;;;;;6200932;23;20399;-93
2021/04/21 11:18:27;;;;;;;8.40;7.63;;;21.30;17.10;;;;;;6198401;23;20417;-94
2021/04/21 11:21:15;;;;;;;9.87;8.97;;;21.40;18.20;;;;;;6171503;23;20372;-91
2021/04/21 11:27:03;;;;;;;8.33;7.53;;;21.80;17.20;;;;;;6190497;23;20643;-92
2021/04/21 11:29:39;;;;;;;8.60;7.80;;;21.80;18.30;;;;;;6165916;23;20922;-92
2021/04/21 11:32:04;;;;;;;8.90;8.00;;;21.60;18.30;;;;;;6163857;23;20375;-91
2021/04/21 11:34:38;;;;;;;7.30;6.73;;;21.70;17.70;;;;;;6163195;23;20371;-92
2021/04/21 11:37:41;;;;;;;6.37;5.87;;;21.80;16.90;;;;;;6163092;23;20481;-91
2021/04/21 11:40:29;;;;;;;7.70;7.07;;;21.90;17.50;;;;;;6165450;23;20409;-91
2021/04/21 11:43:25;;;;;;;6.77;6.17;;;22.10;17.80;;;;;;6162978;23;20505;-93
2021/04/21 11:45:50;;;;;;;6.90;6.30;;;22.30;16.30;;;;;;6164188;23;20383;-93
2021/04/21 11:48:23;;;;;;;7.13;6.43;;;22.40;16.40;;;;;;6164127;23;20429;-92
2021/04/21 11:51:16;;;;;;;7.80;7.10;;;22.90;17.00;;;;;;6167042;23;20139;-93
2021/04/21 11:53:42;;;;;;;7.40;6.80;;;22.30;16.50;;;;;;6166202;23;20384;-94
2021/04/21 12:00:10;;;;;;;6.30;5.80;;;22.60;16.20;;;;;;6046067;23;20169;-93
2021/04/21 12:12:52;;;;;;;6.47;5.87;;;23.30;16.50;;;;;;6122075;23;20735;-92
2021/04/21 12:15:19;;;;;;;7.50;6.80;;;23.70;16.30;;;;;;6164876;23;20364;-91
2021/04/21 12:21:16;;;;;;;7.10;6.50;;;24.30;15.70;;;;;;6199409;23;20321;-92
2021/04/21 12:54:46;;;;;;;6.20;5.60;;;22.40;16.00;;;;;;6190861;23;20425;-92
2021/04/21 12:57:18;;;;;;;5.27;4.87;;;22.50;15.20;;;;;;6191317;23;20362;-92
2021/04/21 12:59:58;;;;;;;6.00;5.50;;;22.50;14.70;;;;;;6165253;23;20357;-91
2021/04/21 13:02:51;;;;;;;5.60;5.20;;;22.40;14.80;;;;;;6192407;23;20356;-91
2021/04/21 13:05:54;;;;;;;4.97;4.53;;;22.10;14.90;;;;;;6169522;23;20415;-91
2021/04/21 13:08:27;;;;;;;5.47;4.97;;;22.60;14.80;;;;;;6164126;23;20397;-91
2021/04/21 13:10:56;;;;;;;5.40;5.00;;;22.70;15.20;;;;;;6164728;23;20381;-90
2021/04/21 13:13:29;;;;;;;6.63;6.13;;;22.80;15.70;;;;;;6165756;23;20411;-89
2021/04/21 13:16:00;;;;;;;6.20;5.70;;;22.70;16.10;;;;;;6156676;23;20386;-91
2021/04/21 13:18:36;;;;;;;6.70;6.00;;;22.10;16.80;;;;;;6164783;23;20863;-90
2021/04/21 13:21:07;;;;;;;6.93;6.30;;;22.30;16.90;;;;;;6167861;23;20367;-91
2021/04/21 13:24:22;;;;;;;7.40;6.70;;;22.70;16.70;;;;;;6166966;23;20389;-90
2021/04/21 13:26:58;;;;;;;7.67;6.97;;;22.70;17.20;;;;;;6168135;23;20353;-90
2021/04/21 13:29:53;;;;;;;8.13;7.43;;;22.60;16.60;;;;;;6164706;23;20414;-90
2021/04/21 13:32:28;;;;;;;9.00;8.20;;;22.50;16.30;;;;;;6164489;23;20675;-90
2021/04/21 13:38:27;;;;;;;7.23;6.47;;;22.20;17.30;;;;;;6190677;23;20819;-90
2021/04/21 13:40:54;;;;;;;8.80;7.97;;;22.30;17.60;;;;;;6164611;23;20348;-90
2021/04/21 13:43:35;;;;;;;9.17;8.40;;;22.30;17.50;;;;;;6163158;23;20381;-90
2021/04/21 13:46:02;;;;;;;9.60;8.67;;;22.40;18.10;;;;;;6164040;23;20448;-90
2021/04/21 13:48:56;;;;;;;8.53;7.73;;;22.50;17.80;;;;;;6166402;23;20395;-94
2021/04/21 13:51:21;;;;;;;7.90;7.20;;;22.40;17.20;;;;;;6167601;23;20866;-94
2021/04/21 13:53:47;;;;;;;7.53;6.93;;;22.90;17.00;;;;;;6160958;23;20477;-92
2021/04/21 13:56:27;;;;;;;7.03;6.50;;;23.20;16.60;;;;;;6160920;23;20453;-92
2021/04/21 13:58:53;;;;;;;8.30;7.53;;;23.20;16.30;;;;;;6161327;23;20166;-92
2021/04/21 14:05:29;;;;;;;6.37;5.87;;;22.80;15.10;;;;;;6165785;23;20159;-92
2021/04/21 14:07:55;;;;;;;7.60;6.90;;;23.00;15.00;;;;;;6160892;23;20391;-91
2021/04/21 14:10:36;;;;;;;7.23;6.63;;;22.90;16.00;;;;;;6161531;23;20369;-92
2021/04/21 14:13:07;;;;;;;6.37;5.77;;;22.90;14.80;;;;;;6160718;23;20441;-92
2021/04/21 14:15:33;;;;;;;6.93;6.43;;;22.60;15.00;;;;;;6161690;23;20872;-90
2021/04/21 14:18:06;;;;;;;5.90;5.40;;;22.90;15.70;;;;;;6158853;23;20357;-91
2021/04/21 14:20:32;;;;;;;5.87;5.37;;;23.10;15.20;;;;;;6159043;23;20901;-91
2021/04/21 14:22:58;;;;;;;6.10;5.60;;;23.60;15.30;;;;;;6159064;23;20354;-91
2021/04/21 14:25:24;;;;;;;6.43;5.83;;;23.70;15.10;;;;;;6158708;23;20156;-90
2021/04/21 14:27:51;;;;;;;6.37;5.87;;;23.80;14.30;;;;;;6159581;23;20383;-92
2021/04/21 14:30:25;;;;;;;6.00;5.50;;;23.40;15.10;;;;;;6163661;23;20485;-94
2021/04/21 14:32:52;;;;;;;7.30;6.70;;;23.60;15.90;;;;;;6163358;23;20772;-93
2021/04/21 14:35:40;;;;;;;5.50;5.10;;;23.30;15.40;;;;;;6163896;23;20387;-94
2021/04/21 14:38:06;;;;;;;6.57;5.97;;;23.50;15.40;;;;;;6159380;23;20381;-89
2021/04/21 14:40:32;;;;;;;7.90;7.10;;;23.80;15.70;;;;;;6159624;23;20352;-90
2021/04/21 14:42:59;;;;;;;8.50;7.80;;;24.00;14.40;;;;;;6158688;23;20350;-88
2021/04/21 14:45:24;;;;;;;8.70;7.60;;;24.00;14.70;;;;;;6159036;23;20397;-90
2021/04/21 14:51:13;;;;;;;7.40;6.80;;;24.10;15.20;;;;;;6160727;23;20198;-92
2021/04/21 14:53:39;;;;;;;7.30;6.67;;;24.20;15.30;;;;;;6158135;23;20438;-90
2021/04/21 14:56:05;;;;;;;8.50;7.60;;;24.30;15.30;;;;;;6156916;23;20830;-89
2021/04/21 14:58:30;;;;;;;8.03;7.43;;;24.20;14.80;;;;;;6157270;23;20206;-88
2021/04/21 15:00:56;;;;;;;8.47;7.67;;;23.80;15.20;;;;;;6156305;23;20448;-88
2021/04/21 15:03:22;;;;;;;8.27;7.47;;;23.50;15.10;;;;;;6156434;23;20151;-89
2021/04/21 15:05:48;;;;;;;7.40;6.70;;;23.40;15.70;;;;;;6156265;23;20393;-88
2021/04/21 15:08:15;;;;;;;8.03;7.33;;;23.20;15.90;;;;;;6156040;23;20190;-87
2021/04/21 15:10:41;;;;;;;8.03;7.33;;;22.90;15.40;;;;;;6157053;23;20150;-89
2021/04/21 15:13:08;;;;;;;8.27;6.73;;;22.70;16.00;;;;;;6157218;23;20358;-89
2021/04/21 15:15:48;;;;;;;8.27;7.57;;;22.60;16.50;;;;;;6156900;23;20354;-88
2021/04/21 15:18:16;;;;;;;8.10;7.30;;;22.50;16.30;;;;;;6156452;23;20385;-89
2021/04/21 15:20:57;;;;;;;7.40;6.80;;;22.50;16.20;;;;;;6156457;23;20354;-87
2021/04/21 15:23:24;;;;;;;6.27;5.83;;;22.60;16.00;;;;;;6157021;23;20390;-87
2021/04/21 15:26:19;;;;;;;7.20;6.63;;;22.60;16.00;;;;;;6157031;23;20409;-88
2021/04/21 15:28:46;;;;;;;6.93;6.10;;;22.50;16.20;;;;;;6156956;23;20901;-89
2021/04/21 15:31:37;;;;;;;8.17;7.40;;;22.60;16.30;;;;;;6158810;23;20408;-89
2021/04/21 15:34:04;;;;;;;6.80;6.30;;;22.60;16.10;;;;;;6158529;23;20397;-89
2021/04/21 15:36:48;;;;;;;6.70;6.20;;;22.70;16.40;;;;;;6160819;23;20381;-88
2021/04/21 15:39:15;;;;;;;6.70;5.97;;;22.70;16.20;;;;;;6160436;23;20449;-89
2021/04/21 15:42:00;;;;;;;7.50;6.90;;;22.70;16.10;;;;;;6161276;23;20353;-88
2021/04/21 15:44:26;;;;;;;6.40;5.80;;;22.60;16.20;;;;;;6159868;23;20711;-89
2021/04/21 15:47:32;;;;;;;6.60;6.10;;;22.70;16.70;;;;;;6170221;23;20387;-89
2021/04/21 15:49:59;;;;;;;7.27;6.50;;;22.70;15.80;;;;;;6163075;23;20191;-89
2021/04/21 15:52:32;;;;;;;6.60;5.90;;;22.60;16.10;;;;;;6158647;23;20346;-89
2021/04/21 15:54:58;;;;;;;7.10;6.40;;;22.60;16.50;;;;;;6130108;23;20160;-89
2021/04/21 15:57:25;;;;;;;7.23;6.50;;;22.20;16.40;;;;;;6129922;23;20397;-89
2021/04/21 15:59:50;;;;;;;7.53;6.83;;;22.40;16.20;;;;;;6130166;23;20721;-89
2021/04/21 16:02:25;;;;;;;6.53;5.93;;;22.20;16.00;;;;;;6131837;23;20387;-88
2021/04/21 16:04:52;;;;;;;7.53;6.83;;;22.20;16.20;;;;;;6131708;23;20151;-88
2021/04/21 16:07:25;;;;;;;6.20;5.53;;;22.10;15.90;;;;;;6136803;23;20689;-88
2021/04/21 16:09:51;;;;;;;6.30;5.80;;;22.10;16.20;;;;;;6129106;23;20455;-88
2021/04/21 16:12:24;;;;;;;7.23;6.63;;;22.10;16.50;;;;;;6136578;23;20415;-91
2021/04/21 16:14:54;;;;;;;9.30;8.50;;;21.90;16.30;;;;;;6131859;23;20160;-88
2021/04/21 16:17:21;;;;;;;7.67;6.17;;;22.20;17.00;;;;;;6131224;23;20388;-88
2021/04/21 16:19:46;;;;;;;9.17;7.53;;;22.10;17.10;;;;;;6129904;23;20351;-87
2021/04/21 16:22:17;;;;;;;6.50;5.90;;;22.10;17.10;;;;;;6129287;23;20486;-90
2021/04/21 16:24:43;;;;;;;7.03;5.83;;;22.20;17.10;;;;;;6129611;23;20141;-88
2021/04/21 16:27:38;;;;;;;6.03;5.07;;;22.30;17.00;;;;;;6127491;23;20881;-88
2021/04/21 16:30:05;;;;;;;6.53;5.87;;;22.30;17.00;;;;;;6127915;23;20564;-89
2021/04/21 16:32:52;;;;;;;5.40;5.00;;;22.30;17.00;;;;;;6132013;23;20380;-89
2021/04/21 16:35:19;;;;;;;5.33;4.93;;;22.50;17.20;;;;;;6135126;23;20407;-87
2021/04/21 16:38:07;;;;;;;6.73;6.10;;;22.60;17.00;;;;;;6128594;23;20402;-89
2021/04/21 16:40:33;;;;;;;6.23;5.63;;;22.80;16.90;;;;;;6127895;23;20359;-90
2021/04/21 16:42:59;;;;;;;6.43;5.83;;;22.80;16.90;;;;;;6129207;23;20388;-90
2021/04/21 16:45:24;;;;;;;7.37;5.60;;;22.70;16.80;;;;;;6128576;23;20435;-88
2021/04/21 16:52:09;;;;;;;6.50;5.97;;;23.20;17.80;;;;;;6140378;23;20213;-93
2021/04/21 17:02:00;;;;;;;6.00;5.10;;;23.40;16.90;;;;;;6202110;23;20348;-93
2021/04/21 17:08:03;;;;;;;5.47;5.07;;;23.70;16.50;;;;;;6204786;23;20342;-94
2021/04/21 19:53:27;;;;;;;5.83;5.20;;;17.70;29.60;;;;;;6133787;23;20487;-95
2021/04/21 19:59:37;;;;;;;7.00;6.40;;;17.60;30.60;;;;;;6131128;23;20380;-92
2021/04/21 20:02:05;;;;;;;7.80;7.00;;;17.00;30.90;;;;;;6104513;23;20372;-91
2021/04/21 20:07:55;;;;;;;7.03;6.33;;;16.60;31.90;;;;;;6131127;23;20654;-94
2021/04/21 20:10:40;;;;;;;8.00;7.17;;;16.70;31.40;;;;;;6104165;23;20432;-93
2021/04/21 20:13:05;;;;;;;6.53;5.93;;;16.90;31.70;;;;;;6108298;23;20466;-94
2021/04/21 20:15:46;;;;;;;6.60;6.03;;;16.70;31.60;;;;;;6111776;23;20380;-96
2021/04/21 20:18:42;;;;;;;7.23;6.53;;;16.90;32.00;;;;;;6108370;23;20565;-94
